Time;durP1;ratioP1;P1;durP2;ratioP2;P2;SDS_P1;SDS_P2;PMS_P1;PMS_P2;Temp;Humidity;BMP_temperature;BMP_pressure;BME280_temperature;BME280_humidity;BME280_pressure;Samples;Min_cycle;Max_cycle;Signal;HPM_P1;HPM_P2
2022/06/07 00:00:49;;;;;;;;;1.00;1.00;;;;;;;;4989362;28;45395;-65
2022/06/07 00:03:14;;;;;;;;;0.50;0.50;;;;;;;;4974848;28;45907;-66
2022/06/07 00:05:41;;;;;;;;;0.00;0.00;;;;;;;;4974486;28;45429;-67
2022/06/07 00:08:06;;;;;;;;;1.75;1.75;;;;;;;;4989394;28;45391;-65
2022/06/07 00:10:32;;;;;;;;;0.50;0.50;;;;;;;;4974933;28;45287;-67
2022/06/07 00:12:57;;;;;;;;;1.00;1.00;;;;;;;;4973080;28;47871;-68
2022/06/07 00:15:22;;;;;;;;;1.75;1.75;;;;;;;;4974847;28;45287;-65
2022/06/07 00:17:48;;;;;;;;;1.00;1.00;;;;;;;;4972750;28;45529;-67
2022/06/07 00:20:13;;;;;;;;;1.25;1.00;;;;;;;;4964819;28;45504;-67
2022/06/07 00:22:39;;;;;;;;;1.75;1.75;;;;;;;;4989278;28;48560;-67
2022/06/07 00:25:06;;;;;;;;;0.50;0.50;;;;;;;;5005241;28;45738;-66
2022/06/07 00:27:31;;;;;;;;;0.25;0.25;;;;;;;;4974398;28;45389;-65
2022/06/07 00:29:57;;;;;;;;;1.75;0.50;;;;;;;;4989519;28;45530;-67
2022/06/07 00:32:23;;;;;;;;;1.25;1.25;;;;;;;;4973769;28;45491;-66
2022/06/07 00:34:48;;;;;;;;;1.00;1.00;;;;;;;;4976145;28;45340;-67
2022/06/07 00:37:13;;;;;;;;;0.75;0.75;;;;;;;;4992312;28;45422;-67
2022/06/07 00:39:39;;;;;;;;;0.75;0.75;;;;;;;;4975888;28;45457;-68
2022/06/07 00:42:04;;;;;;;;;0.50;0.50;;;;;;;;4991086;28;48825;-68
2022/06/07 00:44:31;;;;;;;;;1.50;1.50;;;;;;;;4975869;28;46066;-65
2022/06/07 00:46:59;;;;;;;;;0.25;0.25;;;;;;;;4992784;28;45557;-66
2022/06/07 00:49:25;;;;;;;;;2.25;1.00;;;;;;;;4975961;28;45504;-67
2022/06/07 00:51:51;;;;;;;;;0.75;0.75;;;;;;;;4988843;28;48779;-68
2022/06/07 00:54:24;;;;;;;;;1.00;1.00;;;;;;;;5007746;28;46311;-68
2022/06/07 00:56:49;;;;;;;;;0.75;0.75;;;;;;;;4989703;28;45424;-67
2022/06/07 00:59:15;;;;;;;;;0.50;0.50;;;;;;;;4973065;28;45579;-67
2022/06/07 01:01:40;;;;;;;;;1.00;1.00;;;;;;;;4972131;28;46966;-68
2022/06/07 01:04:06;;;;;;;;;0.25;0.25;;;;;;;;4971775;28;45931;-67
2022/06/07 01:11:59;;;;;;;;;0.75;0.75;;;;;;;;4968750;28;45642;-67
2022/06/07 01:14:24;;;;;;;;;0.50;0.50;;;;;;;;5004222;28;45773;-67
2022/06/07 01:16:49;;;;;;;;;2.75;1.75;;;;;;;;4972317;28;45528;-68
2022/06/07 01:19:14;;;;;;;;;0.50;0.50;;;;;;;;4975315;28;46168;-67
2022/06/07 01:21:45;;;;;;;;;0.75;0.75;;;;;;;;4975339;28;45514;-67
2022/06/07 01:24:12;;;;;;;;;0.75;0.75;;;;;;;;4975733;28;45517;-67
2022/06/07 01:26:37;;;;;;;;;1.75;1.75;;;;;;;;4974813;28;45547;-67
2022/06/07 01:29:03;;;;;;;;;1.00;1.00;;;;;;;;4974324;28;45963;-67
2022/06/07 01:31:28;;;;;;;;;1.25;0.75;;;;;;;;4975309;28;46063;-67
2022/06/07 01:33:54;;;;;;;;;2.00;1.00;;;;;;;;4974633;28;45634;-67
2022/06/07 01:36:19;;;;;;;;;0.25;0.25;;;;;;;;4989888;28;45406;-69
2022/06/07 01:41:53;;;;;;;;;0.50;0.50;;;;;;;;4975595;28;45395;-67
2022/06/07 01:44:15;;;;;;;;;0.75;0.75;;;;;;;;4973851;28;45471;-66
2022/06/07 01:46:40;;;;;;;;;1.50;1.50;;;;;;;;5005652;28;45551;-67
2022/06/07 01:49:05;;;;;;;;;1.00;1.00;;;;;;;;4988637;28;45548;-66
2022/06/07 01:51:31;;;;;;;;;0.50;0.50;;;;;;;;4973752;28;46400;-66
2022/06/07 01:53:56;;;;;;;;;0.00;0.00;;;;;;;;4978414;28;45485;-67
2022/06/07 01:56:21;;;;;;;;;1.00;1.00;;;;;;;;4978837;28;45229;-67
2022/06/07 01:58:46;;;;;;;;;0.75;0.75;;;;;;;;4978562;28;45438;-66
2022/06/07 02:01:12;;;;;;;;;1.50;1.50;;;;;;;;5009717;28;48945;-65
2022/06/07 02:03:37;;;;;;;;;1.75;1.75;;;;;;;;4974398;28;45372;-65
2022/06/07 02:06:04;;;;;;;;;0.75;0.75;;;;;;;;4980131;28;45391;-65
2022/06/07 02:08:30;;;;;;;;;1.00;1.00;;;;;;;;4976852;28;45527;-66
2022/06/07 02:10:56;;;;;;;;;0.00;0.00;;;;;;;;4972272;28;46127;-66
2022/06/07 02:13:22;;;;;;;;;1.25;1.00;;;;;;;;4972574;28;45403;-67
2022/06/07 02:15:47;;;;;;;;;2.25;1.75;;;;;;;;4971732;28;45596;-67
2022/06/07 02:18:13;;;;;;;;;0.50;0.50;;;;;;;;4978105;28;45541;-66
2022/06/07 02:20:39;;;;;;;;;1.50;1.50;;;;;;;;4987413;28;48994;-66
2022/06/07 02:23:05;;;;;;;;;1.00;1.00;;;;;;;;5007253;28;45625;-65
2022/06/07 02:25:30;;;;;;;;;2.25;1.25;;;;;;;;5010585;28;45346;-66
2022/06/07 02:27:56;;;;;;;;;2.75;2.75;;;;;;;;4981993;28;45487;-66
2022/06/07 02:30:21;;;;;;;;;2.25;2.25;;;;;;;;4984855;28;45625;-65
2022/06/07 02:32:46;;;;;;;;;1.50;1.50;;;;;;;;4995588;28;45469;-66
2022/06/07 02:35:12;;;;;;;;;0.50;0.50;;;;;;;;4973158;28;45422;-66
2022/06/07 02:37:38;;;;;;;;;1.00;1.00;;;;;;;;4993287;28;45351;-66
2022/06/07 02:40:04;;;;;;;;;0.75;0.75;;;;;;;;4978590;28;45710;-69
2022/06/07 02:42:29;;;;;;;;;0.50;0.50;;;;;;;;4973397;28;45471;-66
2022/06/07 02:44:57;;;;;;;;;0.50;0.50;;;;;;;;4978367;28;45867;-66
2022/06/07 02:47:22;;;;;;;;;1.50;1.50;;;;;;;;4977267;28;45495;-67
2022/06/07 02:49:48;;;;;;;;;2.50;2.00;;;;;;;;4976238;28;45592;-66
2022/06/07 02:52:13;;;;;;;;;0.75;0.75;;;;;;;;4973874;28;45492;-69
2022/06/07 02:54:38;;;;;;;;;1.00;1.00;;;;;;;;4977831;28;45449;-67
2022/06/07 02:57:04;;;;;;;;;2.00;2.00;;;;;;;;4977929;28;48092;-67
2022/06/07 02:59:29;;;;;;;;;2.50;2.50;;;;;;;;4973689;28;47587;-67
2022/06/07 03:01:54;;;;;;;;;2.00;2.00;;;;;;;;4977136;28;45430;-66
2022/06/07 03:04:20;;;;;;;;;1.25;1.25;;;;;;;;5010298;28;45331;-66
2022/06/07 03:06:45;;;;;;;;;1.75;1.50;;;;;;;;5009480;28;45368;-66
2022/06/07 03:09:10;;;;;;;;;2.00;2.00;;;;;;;;4975921;28;46404;-66
2022/06/07 03:11:35;;;;;;;;;1.25;1.25;;;;;;;;4976004;28;45407;-65
2022/06/07 03:14:01;;;;;;;;;1.75;1.75;;;;;;;;4997112;28;45402;-66
2022/06/07 03:16:26;;;;;;;;;1.75;1.75;;;;;;;;4981251;28;45613;-65
2022/06/07 03:18:51;;;;;;;;;1.25;1.25;;;;;;;;4978830;28;48581;-66
2022/06/07 03:21:16;;;;;;;;;1.00;1.00;;;;;;;;4968594;28;45512;-65
2022/06/07 03:23:42;;;;;;;;;1.50;1.50;;;;;;;;5007839;28;45313;-65
2022/06/07 03:26:09;;;;;;;;;2.00;2.00;;;;;;;;4975610;28;45770;-66
2022/06/07 03:28:34;;;;;;;;;1.50;1.50;;;;;;;;4975215;28;47774;-65
2022/06/07 03:31:04;;;;;;;;;1.25;1.25;;;;;;;;4996018;28;45931;-65
2022/06/07 03:33:30;;;;;;;;;0.75;0.25;;;;;;;;4988434;28;45503;-65
2022/06/07 03:36:02;;;;;;;;;2.25;1.00;;;;;;;;4986441;28;45576;-67
2022/06/07 03:38:27;;;;;;;;;2.25;2.25;;;;;;;;4972962;28;45890;-65
2022/06/07 03:40:52;;;;;;;;;1.75;1.75;;;;;;;;4977059;28;45619;-67
2022/06/07 03:43:17;;;;;;;;;3.00;1.75;;;;;;;;4978436;28;45390;-66
2022/06/07 03:45:42;;;;;;;;;3.25;2.50;;;;;;;;4977340;28;45519;-65
2022/06/07 03:48:08;;;;;;;;;1.75;1.75;;;;;;;;4977400;28;46577;-66
2022/06/07 03:50:34;;;;;;;;;1.50;1.50;;;;;;;;4974931;28;45367;-66
2022/06/07 03:53:00;;;;;;;;;2.75;1.75;;;;;;;;5007964;28;45453;-67
2022/06/07 03:55:26;;;;;;;;;1.75;1.75;;;;;;;;4991133;28;45818;-66
2022/06/07 03:57:51;;;;;;;;;1.25;1.25;;;;;;;;4973501;28;47014;-67
2022/06/07 04:00:16;;;;;;;;;1.25;1.25;;;;;;;;4973201;28;45372;-66
2022/06/07 04:02:42;;;;;;;;;1.75;1.75;;;;;;;;4972292;28;45527;-65
2022/06/07 04:05:07;;;;;;;;;0.50;0.50;;;;;;;;4973639;28;45327;-65
2022/06/07 04:10:16;;;;;;;;;1.75;1.75;;;;;;;;4975409;28;45316;-66
2022/06/07 04:12:41;;;;;;;;;2.25;2.25;;;;;;;;5008247;28;45343;-66
2022/06/07 04:15:07;;;;;;;;;2.50;2.50;;;;;;;;5008382;28;45504;-67
2022/06/07 04:17:32;;;;;;;;;2.50;2.00;;;;;;;;4976226;28;45486;-66
2022/06/07 04:19:57;;;;;;;;;1.75;1.75;;;;;;;;4975378;28;45693;-65
2022/06/07 04:22:22;;;;;;;;;2.50;2.50;;;;;;;;4977004;28;45411;-65
2022/06/07 04:24:48;;;;;;;;;2.00;1.50;;;;;;;;4976536;28;45505;-65
2022/06/07 04:27:13;;;;;;;;;0.50;0.50;;;;;;;;4976180;28;46768;-66
2022/06/07 04:29:39;;;;;;;;;1.25;1.25;;;;;;;;4972167;28;45413;-65
2022/06/07 04:32:04;;;;;;;;;0.50;0.50;;;;;;;;4975081;28;45485;-66
2022/06/07 04:34:29;;;;;;;;;3.25;2.25;;;;;;;;4976989;28;45381;-65
2022/06/07 04:36:55;;;;;;;;;0.75;0.75;;;;;;;;4976138;28;46210;-65
2022/06/07 04:39:20;;;;;;;;;3.50;2.00;;;;;;;;4974813;28;46476;-65
2022/06/07 04:41:45;;;;;;;;;1.00;1.00;;;;;;;;4976392;28;45687;-65
2022/06/07 04:44:10;;;;;;;;;1.00;1.00;;;;;;;;4974844;28;45727;-64
2022/06/07 04:46:35;;;;;;;;;1.50;1.00;;;;;;;;5008047;28;48674;-64
2022/06/07 04:49:01;;;;;;;;;1.75;1.75;;;;;;;;4975939;28;45348;-66
2022/06/07 04:51:27;;;;;;;;;0.50;0.50;;;;;;;;4976129;28;45382;-68
2022/06/07 04:53:53;;;;;;;;;1.50;1.50;;;;;;;;5007646;28;45411;-68
2022/06/07 04:56:19;;;;;;;;;2.25;2.25;;;;;;;;4976015;28;45834;-66
2022/06/07 04:58:44;;;;;;;;;1.75;1.75;;;;;;;;4976635;28;45537;-66
2022/06/07 05:01:11;;;;;;;;;2.00;1.00;;;;;;;;4975740;28;45503;-66
2022/06/07 05:03:36;;;;;;;;;2.00;2.00;;;;;;;;4975919;28;45450;-66
2022/06/07 05:06:01;;;;;;;;;1.75;1.75;;;;;;;;4975715;28;45450;-67
2022/06/07 05:08:26;;;;;;;;;1.50;1.50;;;;;;;;4975891;28;45415;-67
2022/06/07 05:10:53;;;;;;;;;2.00;2.00;;;;;;;;4975250;28;45470;-66
2022/06/07 05:13:19;;;;;;;;;2.00;2.00;;;;;;;;4976050;28;45459;-66
2022/06/07 05:15:51;;;;;;;;;1.00;1.00;;;;;;;;4975649;28;45326;-66
2022/06/07 05:18:17;;;;;;;;;2.25;1.00;;;;;;;;4975602;28;45371;-66
2022/06/07 05:20:42;;;;;;;;;2.00;2.00;;;;;;;;5009049;28;45386;-66
2022/06/07 05:23:07;;;;;;;;;2.00;2.00;;;;;;;;4978840;28;45260;-67
2022/06/07 05:25:33;;;;;;;;;0.50;0.50;;;;;;;;4977621;28;46296;-67
2022/06/07 05:27:58;;;;;;;;;3.25;3.25;;;;;;;;4975462;28;46108;-66
2022/06/07 05:30:24;;;;;;;;;0.75;0.75;;;;;;;;4977185;28;45451;-68
2022/06/07 05:32:49;;;;;;;;;2.25;2.25;;;;;;;;4975862;28;45475;-67
2022/06/07 05:35:14;;;;;;;;;1.50;1.50;;;;;;;;4977198;28;45594;-67
2022/06/07 05:37:39;;;;;;;;;2.00;2.00;;;;;;;;4977535;28;45360;-67
2022/06/07 05:40:05;;;;;;;;;1.50;1.50;;;;;;;;4975387;28;45312;-67
2022/06/07 05:42:30;;;;;;;;;6.00;2.50;;;;;;;;5008236;28;45490;-67
2022/06/07 05:44:57;;;;;;;;;2.00;2.00;;;;;;;;4976926;28;45718;-67
2022/06/07 05:47:22;;;;;;;;;1.75;1.50;;;;;;;;4976971;28;45568;-67
2022/06/07 05:49:47;;;;;;;;;2.00;2.00;;;;;;;;4976248;28;45256;-68
2022/06/07 05:52:13;;;;;;;;;2.00;1.75;;;;;;;;4976755;28;45537;-68
2022/06/07 05:54:41;;;;;;;;;3.00;2.00;;;;;;;;4975510;28;47529;-69
2022/06/07 05:57:07;;;;;;;;;1.25;1.25;;;;;;;;4976927;28;45498;-69
2022/06/07 05:59:32;;;;;;;;;1.50;1.50;;;;;;;;4976986;28;45422;-67
2022/06/07 06:01:57;;;;;;;;;1.75;1.75;;;;;;;;4976347;28;45513;-68
2022/06/07 06:04:24;;;;;;;;;3.00;3.00;;;;;;;;4976892;28;45625;-68
2022/06/07 06:06:50;;;;;;;;;2.25;2.25;;;;;;;;5008363;28;45465;-67
2022/06/07 06:11:59;;;;;;;;;3.75;2.00;;;;;;;;4976715;28;45422;-68
2022/06/07 06:14:24;;;;;;;;;2.00;2.00;;;;;;;;4976734;28;46092;-69
2022/06/07 06:16:50;;;;;;;;;1.00;1.00;;;;;;;;4975585;28;46290;-69
2022/06/07 06:19:15;;;;;;;;;1.75;1.75;;;;;;;;4976583;28;45450;-68
2022/06/07 06:21:43;;;;;;;;;1.00;1.00;;;;;;;;4976641;28;45259;-67
2022/06/07 06:24:11;;;;;;;;;3.00;2.00;;;;;;;;4975091;28;47500;-67
2022/06/07 06:26:38;;;;;;;;;0.75;0.75;;;;;;;;4975138;28;46069;-67
2022/06/07 06:29:03;;;;;;;;;2.00;2.00;;;;;;;;4976488;28;45157;-68
2022/06/07 06:31:29;;;;;;;;;1.75;1.75;;;;;;;;4976736;28;45198;-68
2022/06/07 06:33:54;;;;;;;;;3.75;3.00;;;;;;;;5007087;28;47115;-68
2022/06/07 06:36:21;;;;;;;;;1.25;1.25;;;;;;;;4976246;28;45466;-67
2022/06/07 06:38:46;;;;;;;;;1.25;1.25;;;;;;;;4976566;28;45505;-67
2022/06/07 06:41:13;;;;;;;;;0.50;0.50;;;;;;;;4976060;28;45395;-68
2022/06/07 06:43:38;;;;;;;;;2.00;2.00;;;;;;;;4991893;28;48080;-68
2022/06/07 06:46:08;;;;;;;;;1.50;1.50;;;;;;;;4976199;28;45372;-68
2022/06/07 06:48:33;;;;;;;;;1.50;1.50;;;;;;;;4976053;28;45413;-68
2022/06/07 06:51:04;;;;;;;;;1.00;1.00;;;;;;;;4976251;28;45415;-68
2022/06/07 06:53:29;;;;;;;;;1.00;1.00;;;;;;;;4975903;28;46431;-68
2022/06/07 06:55:55;;;;;;;;;0.00;0.00;;;;;;;;4976250;28;45348;-68
2022/06/07 06:58:20;;;;;;;;;1.75;1.75;;;;;;;;4976545;28;45387;-68
2022/06/07 07:00:45;;;;;;;;;1.00;1.00;;;;;;;;4975871;28;45487;-67
2022/06/07 07:03:10;;;;;;;;;1.25;1.25;;;;;;;;4975794;28;45379;-67
2022/06/07 07:05:36;;;;;;;;;0.75;0.75;;;;;;;;4974295;28;45384;-66
2022/06/07 07:08:01;;;;;;;;;0.75;0.75;;;;;;;;4976325;28;45416;-69
2022/06/07 07:10:26;;;;;;;;;0.75;0.75;;;;;;;;4976582;28;45285;-69
2022/06/07 07:12:51;;;;;;;;;0.50;0.50;;;;;;;;4966724;28;45382;-69
2022/06/07 07:15:18;;;;;;;;;1.25;1.25;;;;;;;;4972842;28;45398;-69
2022/06/07 07:17:46;;;;;;;;;0.00;0.00;;;;;;;;4988166;28;45407;-68
2022/06/07 07:20:12;;;;;;;;;0.25;0.00;;;;;;;;4972811;28;45861;-68
2022/06/07 07:22:37;;;;;;;;;1.00;1.00;;;;;;;;4987828;28;48290;-69
2022/06/07 07:25:03;;;;;;;;;0.50;0.50;;;;;;;;4972974;28;46378;-68
2022/06/07 07:27:29;;;;;;;;;0.75;0.75;;;;;;;;4968473;28;45459;-68
2022/06/07 07:29:54;;;;;;;;;0.50;0.50;;;;;;;;4970310;28;45557;-69
2022/06/07 07:32:19;;;;;;;;;0.00;0.00;;;;;;;;4971862;28;45422;-68
2022/06/07 07:34:44;;;;;;;;;0.00;0.00;;;;;;;;4971787;28;45497;-68
2022/06/07 07:37:10;;;;;;;;;0.75;0.25;;;;;;;;4970835;28;45560;-68
2022/06/07 07:39:36;;;;;;;;;0.00;0.00;;;;;;;;4967927;28;45570;-69
2022/06/07 07:42:01;;;;;;;;;0.50;0.50;;;;;;;;4985227;28;46992;-69
2022/06/07 07:44:27;;;;;;;;;0.00;0.00;;;;;;;;4970728;28;45585;-71
2022/06/07 07:46:53;;;;;;;;;0.00;0.00;;;;;;;;4974743;28;45507;-70
2022/06/07 07:49:19;;;;;;;;;0.00;0.00;;;;;;;;5007457;28;45512;-69
2022/06/07 07:51:46;;;;;;;;;0.25;0.25;;;;;;;;4974353;28;47407;-69
2022/06/07 07:54:13;;;;;;;;;0.00;0.00;;;;;;;;4973458;28;45487;-69
2022/06/07 07:56:38;;;;;;;;;0.00;0.00;;;;;;;;4974407;28;46564;-69
2022/06/07 07:59:04;;;;;;;;;0.00;0.00;;;;;;;;4972659;28;45441;-71
2022/06/07 08:01:30;;;;;;;;;0.00;0.00;;;;;;;;4974241;28;49683;-68
2022/06/07 08:03:57;;;;;;;;;0.75;0.75;;;;;;;;4972142;28;45443;-69
2022/06/07 08:06:23;;;;;;;;;0.50;0.50;;;;;;;;4972784;28;45357;-69
2022/06/07 08:08:52;;;;;;;;;0.75;0.75;;;;;;;;4974886;28;45540;-70
2022/06/07 08:11:19;;;;;;;;;1.00;1.00;;;;;;;;4974386;28;46423;-70
2022/06/07 08:13:44;;;;;;;;;0.00;0.00;;;;;;;;4973135;28;45531;-69
2022/06/07 08:16:10;;;;;;;;;0.00;0.00;;;;;;;;4974558;28;46541;-69
2022/06/07 08:18:36;;;;;;;;;1.50;1.50;;;;;;;;4972994;28;45595;-69
2022/06/07 08:21:03;;;;;;;;;1.00;1.00;;;;;;;;4973157;28;46272;-68
2022/06/07 08:23:28;;;;;;;;;0.50;0.50;;;;;;;;4974361;28;46633;-69
2022/06/07 08:25:57;;;;;;;;;0.75;0.00;;;;;;;;4974664;28;45232;-69
2022/06/07 08:28:23;;;;;;;;;0.75;0.75;;;;;;;;4974021;28;45459;-69
2022/06/07 08:30:49;;;;;;;;;0.25;0.25;;;;;;;;4973698;28;46294;-68
2022/06/07 08:38:42;;;;;;;;;0.50;0.50;;;;;;;;4973062;28;45440;-68
2022/06/07 08:41:17;;;;;;;;;2.25;1.00;;;;;;;;4971485;28;48613;-69
2022/06/07 08:43:42;;;;;;;;;1.50;1.00;;;;;;;;4988355;28;45935;-69
2022/06/07 08:46:09;;;;;;;;;1.00;1.00;;;;;;;;4971449;28;45544;-68
2022/06/07 08:48:34;;;;;;;;;1.00;1.00;;;;;;;;4973125;28;45437;-69
2022/06/07 08:50:59;;;;;;;;;1.75;1.00;;;;;;;;4968946;28;46423;-70
2022/06/07 08:53:28;;;;;;;;;0.00;0.00;;;;;;;;4973124;28;46458;-69
2022/06/07 08:55:56;;;;;;;;;0.00;0.00;;;;;;;;4986795;28;45443;-70
2022/06/07 08:58:26;;;;;;;;;1.00;1.00;;;;;;;;4987152;28;45423;-68
2022/06/07 09:00:56;;;;;;;;;2.00;1.50;;;;;;;;4971333;28;47742;-68
2022/06/07 09:03:30;;;;;;;;;1.00;1.00;;;;;;;;4972125;28;45443;-68
2022/06/07 09:05:57;;;;;;;;;0.75;0.75;;;;;;;;4971828;28;46060;-68
2022/06/07 09:08:25;;;;;;;;;1.00;1.00;;;;;;;;4972718;28;46155;-67
2022/06/07 09:13:36;;;;;;;;;0.75;0.75;;;;;;;;4967534;28;45886;-69
2022/06/07 09:16:01;;;;;;;;;1.00;1.00;;;;;;;;4972704;28;45603;-68
2022/06/07 09:18:28;;;;;;;;;1.00;1.00;;;;;;;;4972572;28;45351;-69
2022/06/07 09:20:57;;;;;;;;;0.00;0.00;;;;;;;;4971058;28;48236;-69
2022/06/07 09:23:31;;;;;;;;;0.00;0.00;;;;;;;;4971371;28;45455;-69
2022/06/07 09:25:57;;;;;;;;;1.00;1.00;;;;;;;;4970268;28;45620;-69
2022/06/07 09:28:27;;;;;;;;;0.50;0.50;;;;;;;;4972243;28;45442;-69
2022/06/07 09:30:57;;;;;;;;;0.00;0.00;;;;;;;;4971329;28;47647;-68
2022/06/07 09:33:25;;;;;;;;;0.00;0.00;;;;;;;;4970994;28;45613;-69
2022/06/07 09:35:52;;;;;;;;;1.75;1.00;;;;;;;;4971795;28;45413;-68
2022/06/07 09:38:24;;;;;;;;;0.00;0.00;;;;;;;;4970218;28;46754;-70
2022/06/07 09:40:52;;;;;;;;;0.00;0.00;;;;;;;;4986143;28;46585;-69
2022/06/07 09:43:18;;;;;;;;;1.00;1.00;;;;;;;;4972012;28;45624;-69
2022/06/07 09:45:44;;;;;;;;;1.00;1.00;;;;;;;;4970966;28;45622;-69
2022/06/07 09:48:20;;;;;;;;;2.00;0.00;;;;;;;;4972755;28;45467;-69
2022/06/07 09:50:54;;;;;;;;;1.00;1.00;;;;;;;;4971669;28;45738;-68
2022/06/07 09:53:19;;;;;;;;;1.00;1.00;;;;;;;;4969184;28;46141;-68
2022/06/07 09:55:52;;;;;;;;;0.00;0.00;;;;;;;;4971108;28;45364;-68
2022/06/07 09:58:35;;;;;;;;;0.00;0.00;;;;;;;;4970450;28;45595;-69
2022/06/07 10:01:06;;;;;;;;;0.50;0.50;;;;;;;;4970793;28;45629;-69
2022/06/07 10:03:41;;;;;;;;;0.00;0.00;;;;;;;;4970229;28;45612;-68
2022/06/07 10:06:11;;;;;;;;;0.00;0.00;;;;;;;;4969613;28;46044;-69
2022/06/07 10:08:48;;;;;;;;;0.00;0.00;;;;;;;;4969966;28;45942;-70
2022/06/07 10:11:31;;;;;;;;;0.25;0.00;;;;;;;;4970155;28;46184;-68
2022/06/07 10:14:15;;;;;;;;;0.00;0.00;;;;;;;;4970693;28;45597;-69
2022/06/07 10:16:49;;;;;;;;;0.00;0.00;;;;;;;;4986465;28;45513;-69
2022/06/07 10:19:17;;;;;;;;;0.00;0.00;;;;;;;;4976040;28;45620;-68
2022/06/07 10:22:08;;;;;;;;;0.75;0.75;;;;;;;;4976158;28;45486;-67
2022/06/07 10:24:52;;;;;;;;;1.00;0.00;;;;;;;;4977167;28;45433;-68
2022/06/07 10:27:22;;;;;;;;;0.00;0.00;;;;;;;;4987987;28;45871;-70
2022/06/07 10:29:54;;;;;;;;;0.00;0.00;;;;;;;;4981368;28;45372;-68
2022/06/07 10:32:23;;;;;;;;;0.00;0.00;;;;;;;;5016359;28;47698;-68
2022/06/07 10:34:48;;;;;;;;;0.00;0.00;;;;;;;;4994144;28;46221;-67
2022/06/07 10:37:23;;;;;;;;;0.00;0.00;;;;;;;;4997897;28;45457;-68
2022/06/07 10:40:08;;;;;;;;;0.00;0.00;;;;;;;;4983513;28;45401;-68
2022/06/07 10:42:34;;;;;;;;;0.00;0.00;;;;;;;;4986282;28;46611;-68
2022/06/07 10:45:03;;;;;;;;;0.00;0.00;;;;;;;;5001572;28;46456;-69
2022/06/07 10:47:34;;;;;;;;;0.00;0.00;;;;;;;;4989952;28;45509;-68
2022/06/07 10:50:26;;;;;;;;;0.00;0.00;;;;;;;;4990079;28;45430;-68
2022/06/07 10:53:14;;;;;;;;;0.00;0.00;;;;;;;;4980895;28;47681;-68
2022/06/07 10:55:43;;;;;;;;;1.00;1.00;;;;;;;;4988137;28;45478;-67
2022/06/07 10:58:11;;;;;;;;;0.00;0.00;;;;;;;;4981481;28;45660;-68
2022/06/07 11:00:39;;;;;;;;;0.00;0.00;;;;;;;;4994810;28;45447;-68
2022/06/07 11:03:04;;;;;;;;;1.00;0.00;;;;;;;;5002209;28;47373;-70
2022/06/07 11:11:08;;;;;;;;;0.25;0.25;;;;;;;;4982318;28;45364;-67
2022/06/07 11:13:39;;;;;;;;;0.00;0.00;;;;;;;;4971274;28;45846;-68
2022/06/07 11:16:10;;;;;;;;;0.00;0.00;;;;;;;;4978970;28;45566;-68
2022/06/07 11:18:39;;;;;;;;;1.75;0.00;;;;;;;;5011225;28;45521;-67
2022/06/07 11:21:05;;;;;;;;;0.00;0.00;;;;;;;;4977875;28;45557;-68
2022/06/07 11:23:35;;;;;;;;;0.00;0.00;;;;;;;;4989977;28;45500;-68
2022/06/07 11:26:00;;;;;;;;;0.00;0.00;;;;;;;;4973688;28;45276;-67
2022/06/07 11:28:28;;;;;;;;;0.50;0.00;;;;;;;;4975136;28;45328;-67
2022/06/07 11:30:58;;;;;;;;;0.00;0.00;;;;;;;;4973814;28;45486;-68
2022/06/07 11:33:50;;;;;;;;;0.00;0.00;;;;;;;;4973446;28;45742;-68
2022/06/07 11:36:24;;;;;;;;;0.00;0.00;;;;;;;;4974343;28;45376;-69
2022/06/07 11:38:56;;;;;;;;;0.00;0.00;;;;;;;;4973870;28;45449;-67
2022/06/07 11:41:40;;;;;;;;;0.00;0.00;;;;;;;;4958301;28;45666;-67
2022/06/07 11:44:08;;;;;;;;;0.00;0.00;;;;;;;;4989181;28;48016;-68
2022/06/07 11:46:33;;;;;;;;;0.00;0.00;;;;;;;;5006140;28;46821;-68
2022/06/07 11:49:17;;;;;;;;;2.00;0.00;;;;;;;;4973572;28;45420;-69
2022/06/07 11:51:50;;;;;;;;;0.00;0.00;;;;;;;;4971358;28;46119;-68
2022/06/07 11:54:15;;;;;;;;;1.00;0.00;;;;;;;;4973298;28;45591;-67
2022/06/07 11:56:45;;;;;;;;;0.00;0.00;;;;;;;;4973494;28;45422;-68
2022/06/07 11:59:16;;;;;;;;;0.00;0.00;;;;;;;;4972536;28;45524;-68
2022/06/07 12:01:46;;;;;;;;;0.00;0.00;;;;;;;;5005635;28;45644;-69
2022/06/07 12:04:28;;;;;;;;;0.00;0.00;;;;;;;;4971737;28;49510;-67
2022/06/07 12:06:53;;;;;;;;;0.00;0.00;;;;;;;;5004801;28;45810;-68
2022/06/07 12:09:19;;;;;;;;;0.00;0.00;;;;;;;;4973548;28;45525;-68
2022/06/07 12:11:44;;;;;;;;;0.00;0.00;;;;;;;;5004975;28;45540;-67
2022/06/07 12:14:24;;;;;;;;;0.00;0.00;;;;;;;;4973414;28;45592;-68
2022/06/07 12:16:49;;;;;;;;;0.00;0.00;;;;;;;;4974262;28;45424;-69
2022/06/07 12:19:18;;;;;;;;;0.00;0.00;;;;;;;;4970428;28;45542;-68
2022/06/07 12:21:47;;;;;;;;;1.00;0.00;;;;;;;;5004827;28;45437;-68
2022/06/07 12:24:16;;;;;;;;;0.00;0.00;;;;;;;;4972821;28;45870;-67
2022/06/07 12:26:41;;;;;;;;;0.00;0.00;;;;;;;;4973242;28;45335;-68
2022/06/07 12:29:07;;;;;;;;;0.00;0.00;;;;;;;;4971769;28;45452;-67
2022/06/07 12:31:37;;;;;;;;;1.00;0.00;;;;;;;;4975778;28;45497;-67
2022/06/07 12:34:15;;;;;;;;;0.00;0.00;;;;;;;;5008048;28;48473;-67
2022/06/07 12:36:41;;;;;;;;;0.00;0.00;;;;;;;;4974917;28;46195;-68
2022/06/07 12:39:11;;;;;;;;;0.00;0.00;;;;;;;;4976566;28;45397;-68
2022/06/07 12:41:44;;;;;;;;;0.00;0.00;;;;;;;;4976432;28;45404;-68
2022/06/07 12:44:19;;;;;;;;;0.00;0.00;;;;;;;;4991639;28;48727;-67
2022/06/07 12:46:46;;;;;;;;;0.00;0.00;;;;;;;;4975504;28;45446;-68
2022/06/07 12:49:14;;;;;;;;;0.00;0.00;;;;;;;;4976292;28;45503;-68
2022/06/07 12:51:40;;;;;;;;;0.00;0.00;;;;;;;;4974853;28;45449;-69
2022/06/07 12:54:06;;;;;;;;;0.00;0.00;;;;;;;;4976094;28;45968;-68
2022/06/07 12:56:32;;;;;;;;;0.00;0.00;;;;;;;;4976214;28;45604;-68
2022/06/07 12:58:58;;;;;;;;;0.00;0.00;;;;;;;;4976489;28;45518;-69
2022/06/07 13:01:23;;;;;;;;;0.00;0.00;;;;;;;;4976395;28;45424;-68
2022/06/07 13:03:50;;;;;;;;;0.00;0.00;;;;;;;;4975820;28;46483;-69
2022/06/07 13:06:18;;;;;;;;;0.00;0.00;;;;;;;;5007784;28;45588;-69
2022/06/07 13:08:54;;;;;;;;;0.00;0.00;;;;;;;;4976304;28;45596;-69
2022/06/07 13:11:19;;;;;;;;;0.00;0.00;;;;;;;;4974734;28;45913;-68
2022/06/07 13:13:45;;;;;;;;;0.00;0.00;;;;;;;;4976465;28;46009;-68
2022/06/07 13:16:10;;;;;;;;;1.00;0.00;;;;;;;;5007548;28;46096;-69
2022/06/07 13:18:38;;;;;;;;;0.00;0.00;;;;;;;;5007458;28;45540;-68
2022/06/07 13:21:24;;;;;;;;;0.00;0.00;;;;;;;;4975904;28;45433;-69
2022/06/07 13:23:54;;;;;;;;;1.00;0.00;;;;;;;;4975731;28;45521;-68
2022/06/07 13:26:19;;;;;;;;;1.25;0.00;;;;;;;;4975571;28;46164;-69
2022/06/07 13:28:45;;;;;;;;;0.00;0.00;;;;;;;;5007827;28;45185;-69
2022/06/07 13:31:45;;;;;;;;;0.00;0.00;;;;;;;;4975524;28;45388;-69
2022/06/07 13:34:19;;;;;;;;;0.00;0.00;;;;;;;;4978270;28;46625;-68
2022/06/07 13:36:45;;;;;;;;;0.00;0.00;;;;;;;;4977458;28;45452;-68
2022/06/07 13:39:20;;;;;;;;;0.00;0.00;;;;;;;;4977574;28;45597;-69
2022/06/07 13:41:48;;;;;;;;;0.00;0.00;;;;;;;;4973385;28;45499;-69
2022/06/07 13:44:13;;;;;;;;;0.00;0.00;;;;;;;;4972259;28;48298;-69
2022/06/07 13:46:50;;;;;;;;;0.00;0.00;;;;;;;;4978181;28;45357;-68
2022/06/07 13:54:52;;;;;;;;;0.00;0.00;;;;;;;;4976445;28;45557;-69
2022/06/07 13:57:17;;;;;;;;;0.00;0.00;;;;;;;;4960079;28;46216;-69
2022/06/07 13:59:42;;;;;;;;;0.00;0.00;;;;;;;;4975155;28;45396;-69
2022/06/07 14:02:10;;;;;;;;;0.00;0.00;;;;;;;;4974473;28;45444;-69
2022/06/07 14:04:35;;;;;;;;;0.00;0.00;;;;;;;;4976929;28;45407;-69
2022/06/07 14:07:01;;;;;;;;;1.00;0.00;;;;;;;;4980595;28;45442;-69
2022/06/07 14:09:27;;;;;;;;;0.00;0.00;;;;;;;;4974889;28;45314;-69
2022/06/07 14:11:54;;;;;;;;;0.00;0.00;;;;;;;;4974716;28;49586;-68
2022/06/07 14:14:19;;;;;;;;;0.00;0.00;;;;;;;;4989378;28;47903;-69
2022/06/07 14:16:49;;;;;;;;;2.00;1.00;;;;;;;;4989971;28;46312;-69
2022/06/07 14:19:17;;;;;;;;;0.00;0.00;;;;;;;;5005897;28;45560;-68
2022/06/07 14:21:42;;;;;;;;;0.00;0.00;;;;;;;;4974367;28;45471;-68
2022/06/07 14:24:15;;;;;;;;;0.00;0.00;;;;;;;;5005613;28;46571;-68
2022/06/07 14:26:41;;;;;;;;;0.00;0.00;;;;;;;;4973056;28;45611;-68
2022/06/07 14:29:06;;;;;;;;;0.50;0.00;;;;;;;;4988006;28;45772;-67
2022/06/07 14:31:33;;;;;;;;;1.00;0.00;;;;;;;;4974532;28;45574;-68
2022/06/07 14:33:58;;;;;;;;;0.00;0.00;;;;;;;;4972487;28;47655;-69
2022/06/07 14:36:23;;;;;;;;;0.75;0.00;;;;;;;;4973745;28;45446;-68
2022/06/07 14:38:48;;;;;;;;;0.00;0.00;;;;;;;;4974466;28;45454;-70
2022/06/07 14:41:15;;;;;;;;;0.00;0.00;;;;;;;;4989218;28;45519;-68
2022/06/07 14:43:41;;;;;;;;;0.50;0.50;;;;;;;;4974316;28;45861;-68
2022/06/07 14:46:31;;;;;;;;;0.00;0.00;;;;;;;;4972834;28;45617;-67
2022/06/07 14:49:09;;;;;;;;;0.50;0.00;;;;;;;;4980364;28;45449;-68
2022/06/07 14:51:36;;;;;;;;;0.00;0.00;;;;;;;;4988801;28;45613;-67
2022/06/07 14:54:02;;;;;;;;;0.00;0.00;;;;;;;;4985726;28;48897;-68
2022/06/07 14:56:30;;;;;;;;;0.00;0.00;;;;;;;;4982273;28;45561;-69
2022/06/07 14:58:55;;;;;;;;;1.00;0.00;;;;;;;;4993334;28;45487;-68
2022/06/07 15:01:29;;;;;;;;;0.00;0.00;;;;;;;;4982011;28;48076;-68
2022/06/07 15:03:54;;;;;;;;;0.50;0.00;;;;;;;;4988490;28;46430;-68
2022/06/07 15:06:26;;;;;;;;;0.00;0.00;;;;;;;;4985368;28;45408;-69
2022/06/07 15:08:54;;;;;;;;;1.25;0.50;;;;;;;;5017359;28;45491;-68
2022/06/07 15:11:24;;;;;;;;;0.00;0.00;;;;;;;;4988908;28;45645;-68
2022/06/07 15:13:50;;;;;;;;;1.00;1.00;;;;;;;;4985039;28;46473;-68
2022/06/07 15:16:15;;;;;;;;;0.25;0.25;;;;;;;;4988501;28;45469;-66
2022/06/07 15:18:41;;;;;;;;;0.00;0.00;;;;;;;;4982737;28;45505;-68